sensor_id;sensor_type;location;lat;lon;timestamp;pressure;altitude;pressure_sealevel;temperature
74536;BMP180;63013;51.104;-115.370;2023-06-04T00:02:25;87241.40;;;23.00
74536;BMP180;63013;51.104;-115.370;2023-06-04T00:04:53;87243.00;;;23.00
74536;BMP180;63013;51.104;-115.370;2023-06-04T00:07:20;87248.00;;;23.00
74536;BMP180;63013;51.104;-115.370;2023-06-04T00:09:48;87241.20;;;23.00
74536;BMP180;63013;51.104;-115.370;2023-06-04T00:12:15;87238.20;;;23.00
74536;BMP180;63013;51.104;-115.370;2023-06-04T00:14:43;87242.40;;;23.00
74536;BMP180;63013;51.104;-115.370;2023-06-04T00:17:10;87241.20;;;23.04
74536;BMP180;63013;51.104;-115.370;2023-06-04T00:19:41;87237.80;;;23.10
74536;BMP180;63013;51.104;-115.370;2023-06-04T00:22:08;87237.20;;;23.10
74536;BMP180;63013;51.104;-115.370;2023-06-04T00:24:38;87231.00;;;23.10
74536;BMP180;63013;51.104;-115.370;2023-06-04T00:27:09;87233.00;;;23.20
74536;BMP180;63013;51.104;-115.370;2023-06-04T00:29:36;87236.40;;;23.20
74536;BMP180;63013;51.104;-115.370;2023-06-04T00:32:04;87229.40;;;23.20
74536;BMP180;63013;51.104;-115.370;2023-06-04T00:34:30;87230.00;;;23.30
74536;BMP180;63013;51.104;-115.370;2023-06-04T00:36:57;87233.00;;;23.30
74536;BMP180;63013;51.104;-115.370;2023-06-04T00:39:24;87224.40;;;23.40
74536;BMP180;63013;51.104;-115.370;2023-06-04T00:41:51;87221.80;;;23.40
74536;BMP180;63013;51.104;-115.370;2023-06-04T00:44:18;87221.80;;;23.48
74536;BMP180;63013;51.104;-115.370;2023-06-04T00:46:48;87219.60;;;23.50
74536;BMP180;63013;51.104;-115.370;2023-06-04T00:49:15;87223.00;;;23.50
74536;BMP180;63013;51.104;-115.370;2023-06-04T00:51:42;87222.20;;;23.50
74536;BMP180;63013;51.104;-115.370;2023-06-04T00:54:10;87218.20;;;23.60
74536;BMP180;63013;51.104;-115.370;2023-06-04T00:56:38;87214.20;;;23.60
74536;BMP180;63013;51.104;-115.370;2023-06-04T00:59:08;87213.80;;;23.60
74536;BMP180;63013;51.104;-115.370;2023-06-04T01:01:58;87213.80;;;23.60
74536;BMP180;63013;51.104;-115.370;2023-06-04T01:07:16;87211.20;;;23.60
74536;BMP180;63013;51.104;-115.370;2023-06-04T01:09:44;87208.60;;;23.60
74536;BMP180;63013;51.104;-115.370;2023-06-04T01:12:13;87213.80;;;23.60
74536;BMP180;63013;51.104;-115.370;2023-06-04T01:14:41;87213.80;;;23.60
74536;BMP180;63013;51.104;-115.370;2023-06-04T01:25:40;87205.80;;;23.60
74536;BMP180;63013;51.104;-115.370;2023-06-04T01:28:14;87200.20;;;23.60
74536;BMP180;63013;51.104;-115.370;2023-06-04T01:30:45;87207.40;;;23.60
74536;BMP180;63013;51.104;-115.370;2023-06-04T01:33:19;87200.80;;;23.60
74536;BMP180;63013;51.104;-115.370;2023-06-04T01:35:46;87203.40;;;23.60
74536;BMP180;63013;51.104;-115.370;2023-06-04T01:38:14;87206.60;;;23.62
74536;BMP180;63013;51.104;-115.370;2023-06-04T01:40:41;87204.20;;;23.66
74536;BMP180;63013;51.104;-115.370;2023-06-04T01:43:09;87196.80;;;23.70
74536;BMP180;63013;51.104;-115.370;2023-06-04T01:45:36;87201.60;;;23.70
74536;BMP180;63013;51.104;-115.370;2023-06-04T01:48:05;87197.60;;;23.70
74536;BMP180;63013;51.104;-115.370;2023-06-04T01:50:32;87203.00;;;23.70
74536;BMP180;63013;51.104;-115.370;2023-06-04T01:52:59;87206.60;;;23.70
74536;BMP180;63013;51.104;-115.370;2023-06-04T01:55:27;87204.00;;;23.70
74536;BMP180;63013;51.104;-115.370;2023-06-04T01:57:56;87194.80;;;23.70
74536;BMP180;63013;51.104;-115.370;2023-06-04T02:00:23;87195.60;;;23.70
74536;BMP180;63013;51.104;-115.370;2023-06-04T02:02:50;87193.00;;;23.70
74536;BMP180;63013;51.104;-115.370;2023-06-04T02:05:17;87190.20;;;23.70
74536;BMP180;63013;51.104;-115.370;2023-06-04T02:07:46;87195.00;;;23.70
74536;BMP180;63013;51.104;-115.370;2023-06-04T02:10:19;87196.20;;;23.78
74536;BMP180;63013;51.104;-115.370;2023-06-04T02:12:59;87197.20;;;23.80
74536;BMP180;63013;51.104;-115.370;2023-06-04T02:15:27;87197.80;;;23.80
74536;BMP180;63013;51.104;-115.370;2023-06-04T02:17:59;87200.60;;;23.80
74536;BMP180;63013;51.104;-115.370;2023-06-04T02:20:27;87201.80;;;23.80
74536;BMP180;63013;51.104;-115.370;2023-06-04T02:22:56;87208.00;;;23.80
74536;BMP180;63013;51.104;-115.370;2023-06-04T02:25:26;87209.20;;;23.80
74536;BMP180;63013;51.104;-115.370;2023-06-04T02:27:53;87210.80;;;23.80
74536;BMP180;63013;51.104;-115.370;2023-06-04T02:30:20;87214.00;;;23.80
74536;BMP180;63013;51.104;-115.370;2023-06-04T02:32:50;87211.80;;;23.80
74536;BMP180;63013;51.104;-115.370;2023-06-04T02:35:17;87219.80;;;23.80
74536;BMP180;63013;51.104;-115.370;2023-06-04T02:37:44;87217.80;;;23.80
74536;BMP180;63013;51.104;-115.370;2023-06-04T02:40:11;87216.80;;;23.84
74536;BMP180;63013;51.104;-115.370;2023-06-04T02:42:38;87219.40;;;23.88
74536;BMP180;63013;51.104;-115.370;2023-06-04T02:45:11;87219.80;;;23.90
74536;BMP180;63013;51.104;-115.370;2023-06-04T02:47:39;87219.80;;;23.90
74536;BMP180;63013;51.104;-115.370;2023-06-04T02:50:06;87218.80;;;23.90
74536;BMP180;63013;51.104;-115.370;2023-06-04T02:52:34;87216.20;;;23.90
74536;BMP180;63013;51.104;-115.370;2023-06-04T02:55:08;87217.60;;;23.90
74536;BMP180;63013;51.104;-115.370;2023-06-04T02:57:36;87212.00;;;23.90
74536;BMP180;63013;51.104;-115.370;2023-06-04T03:00:04;87217.20;;;23.90
74536;BMP180;63013;51.104;-115.370;2023-06-04T03:02:46;87217.20;;;23.90
74536;BMP180;63013;51.104;-115.370;2023-06-04T03:05:16;87215.80;;;23.90
74536;BMP180;63013;51.104;-115.370;2023-06-04T03:07:45;87215.60;;;23.90
74536;BMP180;63013;51.104;-115.370;2023-06-04T03:10:15;87219.00;;;23.90
74536;BMP180;63013;51.104;-115.370;2023-06-04T03:12:42;87222.20;;;23.90
74536;BMP180;63013;51.104;-115.370;2023-06-04T03:15:09;87222.80;;;23.90
74536;BMP180;63013;51.104;-115.370;2023-06-04T03:17:37;87226.60;;;23.90
74536;BMP180;63013;51.104;-115.370;2023-06-04T03:20:04;87230.20;;;23.94
74536;BMP180;63013;51.104;-115.370;2023-06-04T03:22:34;87224.00;;;23.92
74536;BMP180;63013;51.104;-115.370;2023-06-04T03:25:02;87226.00;;;23.96
74536;BMP180;63013;51.104;-115.370;2023-06-04T03:27:33;87224.40;;;24.00
74536;BMP180;63013;51.104;-115.370;2023-06-04T03:30:00;87231.00;;;24.00
74536;BMP180;63013;51.104;-115.370;2023-06-04T03:32:27;87232.20;;;24.00
74536;BMP180;63013;51.104;-115.370;2023-06-04T03:34:54;87231.60;;;24.00
74536;BMP180;63013;51.104;-115.370;2023-06-04T03:37:21;87234.40;;;24.00
74536;BMP180;63013;51.104;-115.370;2023-06-04T03:39:48;87230.60;;;24.00
74536;BMP180;63013;51.104;-115.370;2023-06-04T03:42:16;87232.60;;;24.00
74536;BMP180;63013;51.104;-115.370;2023-06-04T03:44:43;87230.80;;;24.00
74536;BMP180;63013;51.104;-115.370;2023-06-04T03:47:10;87240.40;;;24.00
74536;BMP180;63013;51.104;-115.370;2023-06-04T03:49:37;87233.80;;;24.00
74536;BMP180;63013;51.104;-115.370;2023-06-04T03:52:04;87237.80;;;24.00
74536;BMP180;63013;51.104;-115.370;2023-06-04T03:54:31;87240.40;;;24.00
74536;BMP180;63013;51.104;-115.370;2023-06-04T03:56:58;87242.80;;;24.00
74536;BMP180;63013;51.104;-115.370;2023-06-04T03:59:25;87249.80;;;24.00
74536;BMP180;63013;51.104;-115.370;2023-06-04T04:01:52;87249.40;;;24.00
74536;BMP180;63013;51.104;-115.370;2023-06-04T04:04:19;87251.60;;;24.00
74536;BMP180;63013;51.104;-115.370;2023-06-04T04:06:47;87248.60;;;24.00
74536;BMP180;63013;51.104;-115.370;2023-06-04T04:09:14;87252.20;;;24.00
74536;BMP180;63013;51.104;-115.370;2023-06-04T04:11:42;87251.60;;;24.00
74536;BMP180;63013;51.104;-115.370;2023-06-04T04:14:09;87259.80;;;24.00
74536;BMP180;63013;51.104;-115.370;2023-06-04T04:16:36;87256.20;;;24.04
74536;BMP180;63013;51.104;-115.370;2023-06-04T04:19:03;87255.60;;;24.10
74536;BMP180;63013;51.104;-115.370;2023-06-04T04:21:30;87264.40;;;24.10
74536;BMP180;63013;51.104;-115.370;2023-06-04T04:23:57;87264.20;;;24.10
74536;BMP180;63013;51.104;-115.370;2023-06-04T04:26:24;87265.00;;;24.10
74536;BMP180;63013;51.104;-115.370;2023-06-04T04:28:54;87269.20;;;24.10
74536;BMP180;63013;51.104;-115.370;2023-06-04T04:31:27;87265.40;;;24.10
74536;BMP180;63013;51.104;-115.370;2023-06-04T04:33:56;87262.20;;;24.10
74536;BMP180;63013;51.104;-115.370;2023-06-04T04:36:23;87265.20;;;24.10
74536;BMP180;63013;51.104;-115.370;2023-06-04T04:38:50;87263.00;;;24.10
74536;BMP180;63013;51.104;-115.370;2023-06-04T04:41:21;87255.60;;;24.10
74536;BMP180;63013;51.104;-115.370;2023-06-04T04:43:49;87257.80;;;24.12
74536;BMP180;63013;51.104;-115.370;2023-06-04T04:46:16;87261.20;;;24.10
74536;BMP180;63013;51.104;-115.370;2023-06-04T04:48:43;87262.40;;;24.10
74536;BMP180;63013;51.104;-115.370;2023-06-04T04:51:11;87264.20;;;24.10
74536;BMP180;63013;51.104;-115.370;2023-06-04T04:53:37;87263.00;;;24.10
74536;BMP180;63013;51.104;-115.370;2023-06-04T04:56:05;87255.20;;;24.10
74536;BMP180;63013;51.104;-115.370;2023-06-04T04:58:32;87263.20;;;24.10
74536;BMP180;63013;51.104;-115.370;2023-06-04T05:00:58;87267.20;;;24.10
74536;BMP180;63013;51.104;-115.370;2023-06-04T05:03:26;87263.60;;;24.10
74536;BMP180;63013;51.104;-115.370;2023-06-04T05:05:53;87266.00;;;24.10
74536;BMP180;63013;51.104;-115.370;2023-06-04T05:08:19;87264.40;;;24.10
74536;BMP180;63013;51.104;-115.370;2023-06-04T05:10:46;87259.20;;;24.10
74536;BMP180;63013;51.104;-115.370;2023-06-04T05:13:13;87259.60;;;24.10
74536;BMP180;63013;51.104;-115.370;2023-06-04T05:15:42;87261.60;;;24.10
74536;BMP180;63013;51.104;-115.370;2023-06-04T05:18:09;87261.80;;;24.10
74536;BMP180;63013;51.104;-115.370;2023-06-04T05:20:36;87259.00;;;24.04
74536;BMP180;63013;51.104;-115.370;2023-06-04T05:23:04;87257.60;;;24.00
74536;BMP180;63013;51.104;-115.370;2023-06-04T05:25:31;87258.80;;;24.00
74536;BMP180;63013;51.104;-115.370;2023-06-04T05:27:58;87256.20;;;24.00
74536;BMP180;63013;51.104;-115.370;2023-06-04T05:30:25;87250.60;;;24.00
74536;BMP180;63013;51.104;-115.370;2023-06-04T05:32:52;87252.60;;;24.00
74536;BMP180;63013;51.104;-115.370;2023-06-04T05:35:20;87257.80;;;24.00
74536;BMP180;63013;51.104;-115.370;2023-06-04T05:37:46;87255.00;;;23.92
74536;BMP180;63013;51.104;-115.370;2023-06-04T05:40:21;87249.60;;;23.90
74536;BMP180;63013;51.104;-115.370;2023-06-04T05:42:48;87255.20;;;23.90
74536;BMP180;63013;51.104;-115.370;2023-06-04T05:45:15;87250.40;;;23.90
74536;BMP180;63013;51.104;-115.370;2023-06-04T05:47:42;87249.40;;;23.90
74536;BMP180;63013;51.104;-115.370;2023-06-04T05:50:10;87248.40;;;23.90
74536;BMP180;63013;51.104;-115.370;2023-06-04T05:52:37;87246.80;;;23.90
74536;BMP180;63013;51.104;-115.370;2023-06-04T05:55:05;87250.20;;;23.90
74536;BMP180;63013;51.104;-115.370;2023-06-04T05:57:36;87249.40;;;23.90
74536;BMP180;63013;51.104;-115.370;2023-06-04T06:00:04;87251.60;;;23.88
74536;BMP180;63013;51.104;-115.370;2023-06-04T06:02:37;87251.00;;;23.82
74536;BMP180;63013;51.104;-115.370;2023-06-04T06:05:06;87253.80;;;23.82
74536;BMP180;63013;51.104;-115.370;2023-06-04T06:07:36;87261.80;;;23.80
74536;BMP180;63013;51.104;-115.370;2023-06-04T06:10:04;87260.60;;;23.80
74536;BMP180;63013;51.104;-115.370;2023-06-04T06:12:31;87258.00;;;23.80
74536;BMP180;63013;51.104;-115.370;2023-06-04T06:14:58;87255.00;;;23.80
74536;BMP180;63013;51.104;-115.370;2023-06-04T06:17:25;87250.80;;;23.80
74536;BMP180;63013;51.104;-115.370;2023-06-04T06:19:52;87250.00;;;23.80
74536;BMP180;63013;51.104;-115.370;2023-06-04T06:22:19;87251.00;;;23.74
74536;BMP180;63013;51.104;-115.370;2023-06-04T06:24:46;87253.60;;;23.70
74536;BMP180;63013;51.104;-115.370;2023-06-04T06:27:16;87254.60;;;23.70
74536;BMP180;63013;51.104;-115.370;2023-06-04T06:29:43;87251.40;;;23.70
74536;BMP180;63013;51.104;-115.370;2023-06-04T06:32:11;87257.80;;;23.70
74536;BMP180;63013;51.104;-115.370;2023-06-04T06:34:38;87254.20;;;23.70
74536;BMP180;63013;51.104;-115.370;2023-06-04T06:37:07;87257.80;;;23.70
74536;BMP180;63013;51.104;-115.370;2023-06-04T06:39:34;87261.40;;;23.70
74536;BMP180;63013;51.104;-115.370;2023-06-04T06:42:01;87260.40;;;23.70
74536;BMP180;63013;51.104;-115.370;2023-06-04T06:44:28;87263.80;;;23.70
74536;BMP180;63013;51.104;-115.370;2023-06-04T06:46:55;87264.40;;;23.70
74536;BMP180;63013;51.104;-115.370;2023-06-04T06:49:22;87262.40;;;23.70
74536;BMP180;63013;51.104;-115.370;2023-06-04T06:51:50;87262.80;;;23.68
74536;BMP180;63013;51.104;-115.370;2023-06-04T06:54:17;87263.40;;;23.60
74536;BMP180;63013;51.104;-115.370;2023-06-04T06:56:51;87261.20;;;23.60
74536;BMP180;63013;51.104;-115.370;2023-06-04T06:59:18;87261.00;;;23.60
74536;BMP180;63013;51.104;-115.370;2023-06-04T07:01:45;87262.80;;;23.60
74536;BMP180;63013;51.104;-115.370;2023-06-04T08:08:44;87257.60;;;23.30
74536;BMP180;63013;51.104;-115.370;2023-06-04T08:11:15;87259.20;;;23.30
74536;BMP180;63013;51.104;-115.370;2023-06-04T08:13:42;87257.60;;;23.30
74536;BMP180;63013;51.104;-115.370;2023-06-04T08:16:10;87259.00;;;23.30
74536;BMP180;63013;51.104;-115.370;2023-06-04T08:18:41;87261.00;;;23.30
74536;BMP180;63013;51.104;-115.370;2023-06-04T08:21:11;87259.00;;;23.30
74536;BMP180;63013;51.104;-115.370;2023-06-04T08:23:39;87258.80;;;23.30
74536;BMP180;63013;51.104;-115.370;2023-06-04T08:26:07;87254.80;;;23.30
74536;BMP180;63013;51.104;-115.370;2023-06-04T08:28:34;87256.40;;;23.30
74536;BMP180;63013;51.104;-115.370;2023-06-04T08:31:01;87258.40;;;23.30
74536;BMP180;63013;51.104;-115.370;2023-06-04T08:33:28;87257.60;;;23.30
74536;BMP180;63013;51.104;-115.370;2023-06-04T08:35:55;87262.40;;;23.30
74536;BMP180;63013;51.104;-115.370;2023-06-04T08:38:22;87257.80;;;23.30
74536;BMP180;63013;51.104;-115.370;2023-06-04T08:40:53;87256.40;;;23.30
74536;BMP180;63013;51.104;-115.370;2023-06-04T08:43:24;87259.20;;;23.28
74536;BMP180;63013;51.104;-115.370;2023-06-04T08:45:59;87255.60;;;23.26
74536;BMP180;63013;51.104;-115.370;2023-06-04T08:48:29;87253.00;;;23.26
74536;BMP180;63013;51.104;-115.370;2023-06-04T08:51:02;87250.00;;;23.20
74536;BMP180;63013;51.104;-115.370;2023-06-04T08:53:31;87253.20;;;23.20
74536;BMP180;63013;51.104;-115.370;2023-06-04T08:55:59;87256.60;;;23.20
74536;BMP180;63013;51.104;-115.370;2023-06-04T08:58:31;87259.60;;;23.20
74536;BMP180;63013;51.104;-115.370;2023-06-04T09:01:00;87252.60;;;23.20
74536;BMP180;63013;51.104;-115.370;2023-06-04T09:03:29;87248.60;;;23.20
74536;BMP180;63013;51.104;-115.370;2023-06-04T09:06:02;87248.80;;;23.20
74536;BMP180;63013;51.104;-115.370;2023-06-04T09:08:35;87249.20;;;23.20
74536;BMP180;63013;51.104;-115.370;2023-06-04T09:11:08;87249.80;;;23.20
74536;BMP180;63013;51.104;-115.370;2023-06-04T09:13:39;87252.40;;;23.20
74536;BMP180;63013;51.104;-115.370;2023-06-04T09:16:06;87253.60;;;23.20
74536;BMP180;63013;51.104;-115.370;2023-06-04T09:18:33;87251.00;;;23.20
74536;BMP180;63013;51.104;-115.370;2023-06-04T09:21:06;87246.40;;;23.20
74536;BMP180;63013;51.104;-115.370;2023-06-04T09:23:51;87241.00;;;23.16
74536;BMP180;63013;51.104;-115.370;2023-06-04T09:26:19;87237.40;;;23.10
74536;BMP180;63013;51.104;-115.370;2023-06-04T09:28:48;87241.40;;;23.10
74536;BMP180;63013;51.104;-115.370;2023-06-04T09:31:18;87242.00;;;23.10
74536;BMP180;63013;51.104;-115.370;2023-06-04T09:33:51;87243.20;;;23.10
74536;BMP180;63013;51.104;-115.370;2023-06-04T09:36:18;87243.00;;;23.10
74536;BMP180;63013;51.104;-115.370;2023-06-04T09:38:46;87242.60;;;23.10
74536;BMP180;63013;51.104;-115.370;2023-06-04T09:41:17;87239.40;;;23.10
74536;BMP180;63013;51.104;-115.370;2023-06-04T09:43:48;87242.20;;;23.10
74536;BMP180;63013;51.104;-115.370;2023-06-04T09:46:17;87240.60;;;23.10
74536;BMP180;63013;51.104;-115.370;2023-06-04T09:48:45;87235.00;;;23.06
74536;BMP180;63013;51.104;-115.370;2023-06-04T09:51:14;87236.20;;;23.02
74536;BMP180;63013;51.104;-115.370;2023-06-04T09:53:42;87233.00;;;23.00
74536;BMP180;63013;51.104;-115.370;2023-06-04T09:56:20;87233.60;;;23.00
74536;BMP180;63013;51.104;-115.370;2023-06-04T09:58:49;87241.20;;;23.00
74536;BMP180;63013;51.104;-115.370;2023-06-04T10:01:22;87240.00;;;23.00
74536;BMP180;63013;51.104;-115.370;2023-06-04T10:03:51;87242.80;;;23.00
74536;BMP180;63013;51.104;-115.370;2023-06-04T10:06:20;87241.20;;;23.00
74536;BMP180;63013;51.104;-115.370;2023-06-04T10:08:49;87244.00;;;22.96
74536;BMP180;63013;51.104;-115.370;2023-06-04T10:11:26;87239.60;;;22.90
74536;BMP180;63013;51.104;-115.370;2023-06-04T10:14:16;87240.40;;;22.90
74536;BMP180;63013;51.104;-115.370;2023-06-04T10:16:46;87235.20;;;22.90
74536;BMP180;63013;51.104;-115.370;2023-06-04T10:19:16;87236.20;;;22.90
74536;BMP180;63013;51.104;-115.370;2023-06-04T10:21:45;87236.00;;;22.90
74536;BMP180;63013;51.104;-115.370;2023-06-04T10:24:14;87237.40;;;22.90
74536;BMP180;63013;51.104;-115.370;2023-06-04T10:26:43;87240.20;;;22.90
74536;BMP180;63013;51.104;-115.370;2023-06-04T10:29:12;87235.20;;;22.90
74536;BMP180;63013;51.104;-115.370;2023-06-04T10:31:39;87235.80;;;22.82
74536;BMP180;63013;51.104;-115.370;2023-06-04T10:34:07;87237.40;;;22.80
74536;BMP180;63013;51.104;-115.370;2023-06-04T10:36:43;87244.20;;;22.80
74536;BMP180;63013;51.104;-115.370;2023-06-04T10:39:11;87238.00;;;22.80
74536;BMP180;63013;51.104;-115.370;2023-06-04T10:41:39;87236.80;;;22.80
74536;BMP180;63013;51.104;-115.370;2023-06-04T10:44:07;87231.60;;;22.80
74536;BMP180;63013;51.104;-115.370;2023-06-04T10:46:41;87229.60;;;22.80
74536;BMP180;63013;51.104;-115.370;2023-06-04T10:49:12;87230.20;;;22.78
74536;BMP180;63013;51.104;-115.370;2023-06-04T10:51:38;87226.20;;;22.72
74536;BMP180;63013;51.104;-115.370;2023-06-04T10:54:05;87226.20;;;22.70
74536;BMP180;63013;51.104;-115.370;2023-06-04T10:56:34;87221.60;;;22.70
74536;BMP180;63013;51.104;-115.370;2023-06-04T10:59:17;87225.00;;;22.70
74536;BMP180;63013;51.104;-115.370;2023-06-04T11:01:46;87225.40;;;22.70
74536;BMP180;63013;51.104;-115.370;2023-06-04T11:04:21;87223.80;;;22.70
74536;BMP180;63013;51.104;-115.370;2023-06-04T11:07:09;87224.80;;;22.70
74536;BMP180;63013;51.104;-115.370;2023-06-04T11:09:49;87222.60;;;22.70
74536;BMP180;63013;51.104;-115.370;2023-06-04T11:12:16;87223.60;;;22.60
74536;BMP180;63013;51.104;-115.370;2023-06-04T11:14:59;87222.20;;;22.60
74536;BMP180;63013;51.104;-115.370;2023-06-04T11:17:26;87221.60;;;22.60
74536;BMP180;63013;51.104;-115.370;2023-06-04T11:19:53;87222.40;;;22.60
74536;BMP180;63013;51.104;-115.370;2023-06-04T11:22:22;87219.00;;;22.60
74536;BMP180;63013;51.104;-115.370;2023-06-04T11:24:55;87224.00;;;22.60
74536;BMP180;63013;51.104;-115.370;2023-06-04T11:27:22;87219.40;;;22.60
74536;BMP180;63013;51.104;-115.370;2023-06-04T11:29:51;87220.80;;;22.60
74536;BMP180;63013;51.104;-115.370;2023-06-04T11:32:25;87219.60;;;22.54
74536;BMP180;63013;51.104;-115.370;2023-06-04T11:35:04;87220.20;;;22.50
74536;BMP180;63013;51.104;-115.370;2023-06-04T11:37:34;87224.80;;;22.50
74536;BMP180;63013;51.104;-115.370;2023-06-04T11:40:02;87224.80;;;22.50
74536;BMP180;63013;51.104;-115.370;2023-06-04T11:42:31;87229.80;;;22.50
74536;BMP180;63013;51.104;-115.370;2023-06-04T11:45:00;87224.60;;;22.50
74536;BMP180;63013;51.104;-115.370;2023-06-04T11:47:27;87222.60;;;22.50
74536;BMP180;63013;51.104;-115.370;2023-06-04T11:49:59;87228.20;;;22.44
74536;BMP180;63013;51.104;-115.370;2023-06-04T11:52:27;87226.60;;;22.40
74536;BMP180;63013;51.104;-115.370;2023-06-04T11:54:54;87226.20;;;22.40
74536;BMP180;63013;51.104;-115.370;2023-06-04T11:57:22;87224.20;;;22.40
74536;BMP180;63013;51.104;-115.370;2023-06-04T11:59:50;87232.00;;;22.40
74536;BMP180;63013;51.104;-115.370;2023-06-04T12:02:18;87229.80;;;22.40
74536;BMP180;63013;51.104;-115.370;2023-06-04T12:04:48;87232.00;;;22.38
74536;BMP180;63013;51.104;-115.370;2023-06-04T12:07:20;87233.00;;;22.34
74536;BMP180;63013;51.104;-115.370;2023-06-04T12:09:50;87227.40;;;22.30
74536;BMP180;63013;51.104;-115.370;2023-06-04T12:12:22;87232.40;;;22.30
74536;BMP180;63013;51.104;-115.370;2023-06-04T12:14:59;87232.20;;;22.30
74536;BMP180;63013;51.104;-115.370;2023-06-04T12:17:27;87230.80;;;22.30
74536;BMP180;63013;51.104;-115.370;2023-06-04T12:19:54;87234.80;;;22.30
74536;BMP180;63013;51.104;-115.370;2023-06-04T12:22:22;87233.20;;;22.30
74536;BMP180;63013;51.104;-115.370;2023-06-04T12:24:57;87235.20;;;22.20
74536;BMP180;63013;51.104;-115.370;2023-06-04T12:27:26;87231.40;;;22.20
74536;BMP180;63013;51.104;-115.370;2023-06-04T12:30:04;87236.20;;;22.20
74536;BMP180;63013;51.104;-115.370;2023-06-04T12:32:35;87234.40;;;22.20
74536;BMP180;63013;51.104;-115.370;2023-06-04T12:35:03;87232.80;;;22.20
74536;BMP180;63013;51.104;-115.370;2023-06-04T12:37:30;87240.20;;;22.20
74536;BMP180;63013;51.104;-115.370;2023-06-04T12:39:57;87241.80;;;22.20
74536;BMP180;63013;51.104;-115.370;2023-06-04T12:42:24;87238.60;;;22.20
74536;BMP180;63013;51.104;-115.370;2023-06-04T12:44:51;87240.60;;;22.12
74536;BMP180;63013;51.104;-115.370;2023-06-04T12:47:18;87239.60;;;22.12
74536;BMP180;63013;51.104;-115.370;2023-06-04T12:49:47;87236.20;;;22.10
74536;BMP180;63013;51.104;-115.370;2023-06-04T12:52:14;87239.20;;;22.10
74536;BMP180;63013;51.104;-115.370;2023-06-04T12:54:42;87234.00;;;22.10
74536;BMP180;63013;51.104;-115.370;2023-06-04T12:57:09;87235.60;;;22.10
74536;BMP180;63013;51.104;-115.370;2023-06-04T12:59:37;87235.60;;;22.10
74536;BMP180;63013;51.104;-115.370;2023-06-04T13:02:04;87237.60;;;22.04
74536;BMP180;63013;51.104;-115.370;2023-06-04T13:04:32;87237.00;;;22.00
74536;BMP180;63013;51.104;-115.370;2023-06-04T13:06:58;87239.60;;;22.00
74536;BMP180;63013;51.104;-115.370;2023-06-04T13:09:26;87241.40;;;22.00
74536;BMP180;63013;51.104;-115.370;2023-06-04T13:11:58;87247.20;;;22.00
74536;BMP180;63013;51.104;-115.370;2023-06-04T13:14:25;87245.40;;;21.96
74536;BMP180;63013;51.104;-115.370;2023-06-04T13:16:51;87251.60;;;21.94
74536;BMP180;63013;51.104;-115.370;2023-06-04T13:19:20;87252.00;;;21.90
74536;BMP180;63013;51.104;-115.370;2023-06-04T13:21:47;87246.60;;;21.90
74536;BMP180;63013;51.104;-115.370;2023-06-04T13:24:14;87248.00;;;21.90
74536;BMP180;63013;51.104;-115.370;2023-06-04T13:26:41;87251.80;;;21.90
74536;BMP180;63013;51.104;-115.370;2023-06-04T13:29:09;87246.40;;;21.90
74536;BMP180;63013;51.104;-115.370;2023-06-04T13:31:37;87245.80;;;21.90
74536;BMP180;63013;51.104;-115.370;2023-06-04T13:34:06;87249.20;;;21.90
74536;BMP180;63013;51.104;-115.370;2023-06-04T13:36:33;87253.20;;;21.90
74536;BMP180;63013;51.104;-115.370;2023-06-04T13:39:00;87247.40;;;21.90
74536;BMP180;63013;51.104;-115.370;2023-06-04T13:41:27;87245.60;;;21.88
74536;BMP180;63013;51.104;-115.370;2023-06-04T13:43:54;87252.20;;;21.80
74536;BMP180;63013;51.104;-115.370;2023-06-04T13:46:21;87247.80;;;21.80
74536;BMP180;63013;51.104;-115.370;2023-06-04T13:48:48;87252.20;;;21.80
74536;BMP180;63013;51.104;-115.370;2023-06-04T13:51:14;87250.00;;;21.80
74536;BMP180;63013;51.104;-115.370;2023-06-04T13:53:41;87242.60;;;21.80
74536;BMP180;63013;51.104;-115.370;2023-06-04T13:56:08;87243.20;;;21.80
74536;BMP180;63013;51.104;-115.370;2023-06-04T13:58:35;87242.40;;;21.80
74536;BMP180;63013;51.104;-115.370;2023-06-04T14:01:02;87241.60;;;21.80
74536;BMP180;63013;51.104;-115.370;2023-06-04T14:03:29;87239.40;;;21.80
74536;BMP180;63013;51.104;-115.370;2023-06-04T14:05:56;87237.20;;;21.80
74536;BMP180;63013;51.104;-115.370;2023-06-04T14:08:23;87231.40;;;21.80
74536;BMP180;63013;51.104;-115.370;2023-06-04T14:10:50;87230.20;;;21.80
74536;BMP180;63013;51.104;-115.370;2023-06-04T14:13:18;87231.00;;;21.80
74536;BMP180;63013;51.104;-115.370;2023-06-04T14:15:45;87235.60;;;21.80
74536;BMP180;63013;51.104;-115.370;2023-06-04T14:18:12;87227.00;;;21.80
74536;BMP180;63013;51.104;-115.370;2023-06-04T14:20:39;87229.80;;;21.80
74536;BMP180;63013;51.104;-115.370;2023-06-04T14:23:06;87223.40;;;21.80
74536;BMP180;63013;51.104;-115.370;2023-06-04T14:25:33;87218.20;;;21.80
74536;BMP180;63013;51.104;-115.370;2023-06-04T14:28:03;87226.60;;;21.78
74536;BMP180;63013;51.104;-115.370;2023-06-04T14:30:30;87222.20;;;21.80
74536;BMP180;63013;51.104;-115.370;2023-06-04T14:32:57;87221.20;;;21.80
74536;BMP180;63013;51.104;-115.370;2023-06-04T14:35:24;87219.20;;;21.78
74536;BMP180;63013;51.104;-115.370;2023-06-04T14:37:51;87215.40;;;21.80
74536;BMP180;63013;51.104;-115.370;2023-06-04T14:40:18;87218.80;;;21.80
74536;BMP180;63013;51.104;-115.370;2023-06-04T14:42:45;87217.60;;;21.80
74536;BMP180;63013;51.104;-115.370;2023-06-04T14:45:12;87217.80;;;21.80
74536;BMP180;63013;51.104;-115.370;2023-06-04T14:47:39;87218.40;;;21.78
74536;BMP180;63013;51.104;-115.370;2023-06-04T14:50:07;87216.40;;;21.80
74536;BMP180;63013;51.104;-115.370;2023-06-04T14:52:33;87218.20;;;21.80
74536;BMP180;63013;51.104;-115.370;2023-06-04T14:55:00;87212.00;;;21.76
74536;BMP180;63013;51.104;-115.370;2023-06-04T14:57:27;87211.40;;;21.78